createdAt,value
2019-06-10T00:01:27.226Z,12.85
2019-06-10T00:04:00.503Z,16.30
2019-06-10T00:06:32.799Z,13.62
2019-06-10T00:09:07.985Z,16.15
2019-06-10T00:11:41.111Z,15.63
2019-06-10T00:14:12.743Z,18.23
2019-06-10T00:16:44.639Z,15.08
2019-06-10T00:19:16.261Z,12.50
2019-06-10T00:21:47.920Z,13.85
2019-06-10T00:24:21.083Z,18.17
2019-06-10T00:26:53.082Z,17.12
2019-06-10T00:29:24.783Z,15.00
2019-06-10T00:31:56.192Z,16.00
2019-06-10T00:34:27.725Z,14.43
2019-06-10T00:37:02.064Z,13.83
2019-06-10T00:39:32.787Z,17.05
2019-06-10T00:42:07.593Z,15.03
2019-06-10T00:44:37.921Z,15.13
2019-06-10T00:47:14.768Z,14.07
2019-06-10T00:49:42.865Z,14.13
2019-06-10T00:52:14.594Z,13.13
2019-06-10T00:54:46.332Z,15.90
2019-06-10T00:57:17.768Z,17.40
2019-06-10T00:59:50.810Z,15.95
2019-06-10T01:02:23.523Z,15.18
2019-06-10T01:04:55.299Z,13.55
2019-06-10T01:07:26.809Z,15.78
2019-06-10T01:09:58.464Z,14.50
2019-06-10T01:12:31.645Z,13.98
2019-06-10T01:15:03.547Z,15.88
2019-06-10T01:17:35.397Z,15.63
2019-06-10T01:20:07.872Z,13.13
2019-06-10T01:22:41.122Z,16.15
2019-06-10T01:25:14.967Z,15.18
2019-06-10T01:27:46.610Z,13.53
2019-06-10T01:30:24.590Z,13.72
2019-06-10T01:32:52.318Z,14.30
2019-06-10T01:35:23.981Z,14.25
2019-06-10T01:37:55.687Z,12.73
2019-06-10T01:40:27.342Z,13.85
2019-06-10T01:43:00.954Z,12.47
2019-06-10T01:45:32.454Z,14.28
2019-06-10T01:48:04.514Z,15.40
2019-06-10T01:50:36.191Z,15.43
2019-06-10T01:53:07.688Z,15.63
2019-06-10T01:55:41.734Z,15.90
2019-06-10T01:58:16.255Z,16.37
2019-06-10T02:00:56.306Z,17.15
2019-06-10T02:03:27.983Z,17.70
2019-06-10T02:06:01.367Z,15.55
2019-06-10T02:08:33.895Z,17.73
2019-06-10T02:11:05.613Z,16.35
2019-06-10T02:13:37.307Z,16.17
2019-06-10T02:16:10.364Z,17.07
2019-06-10T02:21:16.415Z,14.75
2019-06-10T02:23:47.521Z,18.37
2019-06-10T02:26:21.999Z,16.87
2019-06-10T02:28:52.903Z,16.57
2019-06-10T02:31:30.553Z,16.48
2019-06-10T02:33:58.161Z,15.45
2019-06-10T02:36:35.371Z,16.30
2019-06-10T02:39:04.525Z,17.15
2019-06-10T02:41:36.740Z,19.67
2019-06-10T02:44:08.800Z,15.63
2019-06-10T02:46:43.966Z,15.28
2019-06-10T02:49:31.357Z,17.48
2019-06-10T02:51:47.497Z,18.70
2019-06-10T02:54:20.870Z,16.55
2019-06-10T02:56:53.982Z,16.90
2019-06-10T02:59:29.980Z,16.85
2019-06-10T03:02:02.892Z,18.48
2019-06-10T03:04:37.713Z,17.12
2019-06-10T03:07:07.101Z,16.85
2019-06-10T03:09:38.654Z,15.60
2019-06-10T03:12:12.208Z,17.12
2019-06-10T03:14:44.125Z,22.02
2019-06-10T03:17:18.374Z,16.37
2019-06-10T03:19:53.013Z,15.18
2019-06-10T03:24:55.559Z,17.02
2019-06-10T03:27:27.948Z,15.93
2019-06-10T03:30:02.795Z,16.30
2019-06-10T03:32:40.540Z,25.70
2019-06-10T03:35:06.884Z,19.15
2019-06-10T03:37:38.431Z,21.60
2019-06-10T03:40:12.871Z,13.10
2019-06-10T03:42:43.839Z,13.30
2019-06-10T03:45:17.267Z,16.93
2019-06-10T03:47:49.189Z,14.85
2019-06-10T03:50:23.953Z,16.02
2019-06-10T03:55:27.541Z,15.10
2019-06-10T03:57:58.434Z,13.13
2019-06-10T04:00:32.559Z,16.12
2019-06-10T04:03:03.792Z,16.20
2019-06-10T04:05:35.750Z,14.10
2019-06-10T04:08:07.434Z,15.23
2019-06-10T04:10:39.505Z,14.98
2019-06-10T04:13:13.306Z,12.47
2019-06-10T04:15:45.401Z,13.08
2019-06-10T04:18:17.848Z,12.65
2019-06-10T04:20:49.891Z,11.48
2019-06-10T04:23:23.805Z,11.33
2019-06-10T04:25:55.360Z,12.85
2019-06-10T04:28:28.685Z,12.30
2019-06-10T04:31:02.532Z,13.93
2019-06-10T04:33:34.122Z,12.13
2019-06-10T04:36:05.599Z,11.53
2019-06-10T04:38:37.282Z,13.20
2019-06-10T04:41:08.855Z,12.15
2019-06-10T04:43:42.990Z,12.25
2019-06-10T04:46:13.891Z,12.75
2019-06-10T04:48:45.608Z,13.35
2019-06-10T04:51:17.166Z,14.40
2019-06-10T04:53:48.857Z,13.20
2019-06-10T04:56:22.897Z,11.73
2019-06-10T05:01:27.011Z,11.45
2019-06-10T05:06:28.675Z,13.32
2019-06-10T05:09:04.052Z,10.93
2019-06-10T05:11:34.883Z,10.03
2019-06-10T05:14:06.679Z,11.10
2019-06-10T05:16:38.434Z,11.30
2019-06-10T05:19:09.777Z,14.93
2019-06-10T05:21:42.374Z,10.70
2019-06-10T05:24:14.133Z,14.03
2019-06-10T05:26:45.855Z,12.00
2019-06-10T05:29:17.819Z,10.63
2019-06-10T05:31:52.157Z,10.45
2019-06-10T05:34:25.579Z,11.25
2019-06-10T05:36:56.403Z,12.33
2019-06-10T05:39:29.170Z,12.78
2019-06-10T05:42:03.302Z,10.55
2019-06-10T05:44:35.383Z,10.63
2019-06-10T05:47:12.521Z,13.30
2019-06-10T05:49:46.734Z,9.25
2019-06-10T05:52:18.272Z,10.32
2019-06-10T05:54:52.153Z,10.43
2019-06-10T05:57:24.587Z,8.73
2019-06-10T05:59:57.053Z,8.05
2019-06-10T06:02:29.842Z,9.75
2019-06-10T06:07:35.587Z,10.93
2019-06-10T06:10:09.057Z,6.37
2019-06-10T06:12:42.484Z,8.20
2019-06-10T06:15:14.724Z,5.40
2019-06-10T06:17:46.499Z,5.45
2019-06-10T06:20:19.371Z,5.17
2019-06-10T06:22:52.262Z,4.33
2019-06-10T06:25:24.554Z,5.80
2019-06-10T06:27:56.538Z,6.20
2019-06-10T06:30:28.426Z,5.92
2019-06-10T06:33:02.918Z,4.60
2019-06-10T06:35:40.883Z,4.30
2019-06-10T06:38:07.402Z,3.72
2019-06-10T06:40:39.081Z,6.25
2019-06-10T06:43:12.088Z,4.08
2019-06-10T06:45:43.830Z,3.58
2019-06-10T06:48:15.793Z,6.78
2019-06-10T06:51:01.829Z,5.10
2019-06-10T06:53:32.365Z,5.20
2019-06-10T06:55:55.992Z,7.10
2019-06-10T06:58:29.095Z,2.58
2019-06-10T07:01:09.899Z,2.95
2019-06-10T07:03:38.134Z,3.27
2019-06-10T07:06:09.299Z,3.70
2019-06-10T07:08:51.802Z,2.92
2019-06-10T07:11:48.170Z,4.65
2019-06-10T07:14:23.956Z,3.60
2019-06-10T07:16:58.539Z,3.08
2019-06-10T07:19:35.106Z,2.37
2019-06-10T07:22:13.613Z,4.10
2019-06-10T07:24:47.564Z,2.92
2019-06-10T07:27:22.596Z,2.42
2019-06-10T07:29:57.391Z,3.37
2019-06-10T07:32:34.182Z,2.87
2019-06-10T07:35:07.969Z,2.80
2019-06-10T07:37:52.340Z,3.45
2019-06-10T07:40:39.216Z,3.58
2019-06-10T07:43:25.607Z,3.17
2019-06-10T07:46:08.127Z,2.37
2019-06-10T07:48:46.238Z,4.72
2019-06-10T07:51:17.543Z,3.15
2019-06-10T07:53:52.537Z,2.90
2019-06-10T07:56:29.738Z,3.08
2019-06-10T07:59:03.919Z,3.37
2019-06-10T08:01:42.215Z,2.67
2019-06-10T08:04:13.631Z,3.15
2019-06-10T08:06:49.879Z,2.98
2019-06-10T08:09:23.281Z,4.83
2019-06-10T08:11:57.091Z,4.30
2019-06-10T08:14:32.944Z,4.12
2019-06-10T08:17:04.093Z,2.40
2019-06-10T08:19:41.272Z,3.80
2019-06-10T08:22:09.517Z,2.65
2019-06-10T08:24:43.593Z,2.15
2019-06-10T08:27:15.064Z,2.52
2019-06-10T08:29:49.557Z,3.65
2019-06-10T08:32:20.638Z,2.65
2019-06-10T08:34:54.162Z,3.27
2019-06-10T08:37:26.065Z,2.75
2019-06-10T08:39:57.800Z,2.63
2019-06-10T08:42:29.278Z,3.92
2019-06-10T08:45:03.469Z,2.70
2019-06-10T08:47:34.588Z,3.37
2019-06-10T08:50:06.495Z,3.58
2019-06-10T08:53:02.742Z,4.13
2019-06-10T08:55:12.691Z,4.60
2019-06-10T08:57:48.829Z,3.87
2019-06-10T09:00:18.747Z,3.83
2019-06-10T09:02:53.679Z,4.00
2019-06-10T09:05:24.170Z,4.67
2019-06-10T09:07:55.824Z,2.77
2019-06-10T09:10:27.500Z,6.85
2019-06-10T09:12:59.273Z,2.90
2019-06-10T09:15:32.473Z,4.55
2019-06-10T09:18:04.435Z,2.27
2019-06-10T09:20:36.278Z,2.40
2019-06-10T09:23:19.213Z,2.42
2019-06-10T09:25:49.455Z,2.87
2019-06-10T09:28:23.467Z,4.45
2019-06-10T09:30:59.378Z,3.12
2019-06-10T09:33:33.279Z,2.60
2019-06-10T09:36:08.003Z,5.85
2019-06-10T09:38:46.742Z,3.35
2019-06-10T09:41:17.661Z,3.20
2019-06-10T09:43:56.769Z,2.42
2019-06-10T09:46:29.805Z,4.05
2019-06-10T09:49:04.783Z,6.20
2019-06-10T09:51:38.559Z,3.35
2019-06-10T09:54:12.811Z,4.12
2019-06-10T09:56:48.471Z,4.08
2019-06-10T09:59:23.498Z,2.83
2019-06-10T10:02:01.848Z,3.85
2019-06-10T10:04:47.143Z,2.85
2019-06-10T10:07:17.689Z,3.05
2019-06-10T10:10:05.519Z,3.65
2019-06-10T10:12:49.478Z,3.27
2019-06-10T10:15:30.638Z,3.45
2019-06-10T10:18:13.182Z,3.45
2019-06-10T10:20:48.117Z,2.90
2019-06-10T10:23:50.097Z,3.45
2019-06-10T10:26:12.781Z,2.52
2019-06-10T10:28:46.867Z,2.50
2019-06-10T10:31:23.062Z,3.15
2019-06-10T10:33:56.153Z,3.95
2019-06-10T10:36:30.273Z,2.80
2019-06-10T10:39:08.565Z,2.70
2019-06-10T10:41:44.660Z,3.42
2019-06-10T10:44:18.727Z,5.37
2019-06-10T10:46:54.388Z,5.15
2019-06-10T10:49:27.901Z,3.37
2019-06-10T10:52:02.676Z,3.45
2019-06-10T10:54:36.888Z,3.22
2019-06-10T10:57:10.344Z,4.05
2019-06-10T10:59:45.106Z,4.58
2019-06-10T11:02:29.308Z,3.12
2019-06-10T11:05:16.922Z,3.55
2019-06-10T11:08:04.347Z,3.10
2019-06-10T11:10:57.129Z,3.55
2019-06-10T11:13:39.239Z,3.35
2019-06-10T11:16:25.195Z,3.10
2019-06-10T11:19:08.365Z,3.70
2019-06-10T11:21:43.252Z,3.65
2019-06-10T11:24:36.552Z,2.47
2019-06-10T11:27:08.999Z,2.83
2019-06-10T11:29:42.917Z,3.58
2019-06-10T11:32:16.603Z,5.40
2019-06-10T11:34:50.195Z,3.83
2019-06-10T11:37:23.523Z,5.33
2019-06-10T11:39:57.239Z,3.27
2019-06-10T11:42:33.473Z,3.37
2019-06-10T11:45:06.766Z,6.92
2019-06-10T11:47:42.500Z,3.65
2019-06-10T11:50:16.249Z,4.75
2019-06-10T11:52:53.583Z,2.52
2019-06-10T11:55:25.163Z,3.40
2019-06-10T11:57:59.367Z,4.35
2019-06-10T12:00:33.338Z,2.80
2019-06-10T12:03:07.523Z,4.65
2019-06-10T12:05:43.390Z,2.83
2019-06-10T12:08:17.172Z,2.30
2019-06-10T12:10:58.745Z,2.50
2019-06-10T12:13:33.872Z,4.05
2019-06-10T12:16:51.480Z,3.95
2019-06-10T12:18:44.237Z,3.12
2019-06-10T12:21:18.722Z,5.12
2019-06-10T12:23:55.968Z,4.78
2019-06-10T12:26:27.478Z,3.30
2019-06-10T12:29:05.270Z,5.50
2019-06-10T12:31:36.873Z,7.15
2019-06-10T12:34:08.972Z,3.45
2019-06-10T12:36:42.061Z,4.62
2019-06-10T12:39:17.423Z,4.40
2019-06-10T12:41:54.620Z,5.20
2019-06-10T12:44:26.865Z,5.05
2019-06-10T12:47:02.072Z,4.53
2019-06-10T12:49:36.139Z,4.28
2019-06-10T12:52:12.602Z,5.40
2019-06-10T12:54:46.624Z,3.83
2019-06-10T12:57:22.832Z,5.47
2019-06-10T12:59:56.379Z,7.12
2019-06-10T13:02:34.417Z,4.70
2019-06-10T13:05:08.402Z,8.15
2019-06-10T13:07:42.980Z,5.28
2019-06-10T13:10:23.933Z,5.05
2019-06-10T13:12:57.927Z,7.78
2019-06-10T13:15:32.831Z,3.12
2019-06-10T13:18:09.703Z,3.33
2019-06-10T13:20:43.349Z,3.17
2019-06-10T13:23:25.354Z,3.98
2019-06-10T13:25:57.987Z,3.80
2019-06-10T13:28:28.910Z,5.53
2019-06-10T13:31:05.932Z,2.33
2019-06-10T13:33:37.670Z,3.80
2019-06-10T13:36:25.846Z,2.50
2019-06-10T13:39:10.338Z,4.95
2019-06-10T13:41:57.529Z,2.75
2019-06-10T13:44:42.733Z,4.50
2019-06-10T13:47:33.134Z,2.65
2019-06-10T13:50:11.255Z,5.67
2019-06-10T13:52:45.017Z,3.10
2019-06-10T13:55:18.722Z,5.10
2019-06-10T13:57:53.272Z,5.58
2019-06-10T14:00:40.797Z,3.83
2019-06-10T14:03:09.225Z,3.27
2019-06-10T14:05:38.819Z,6.12
2019-06-10T14:08:15.084Z,4.10
2019-06-10T14:10:47.644Z,4.92
2019-06-10T14:13:23.583Z,5.95
2019-06-10T14:15:56.726Z,4.15
2019-06-10T14:18:32.762Z,5.53
2019-06-10T14:21:11.613Z,12.82
2019-06-10T14:23:43.711Z,4.97
2019-06-10T14:26:25.579Z,8.60
2019-06-10T14:28:53.209Z,3.65
2019-06-10T14:31:40.515Z,4.28
2019-06-10T14:34:06.116Z,2.40
2019-06-10T14:36:48.239Z,3.95
2019-06-10T14:39:22.339Z,4.33
2019-06-10T14:41:59.251Z,5.15
2019-06-10T14:44:32.593Z,3.25
2019-06-10T14:47:09.273Z,6.45
2019-06-10T14:49:43.241Z,3.83
2019-06-10T14:52:19.713Z,3.33
2019-06-10T14:54:53.509Z,2.77
2019-06-10T14:57:27.129Z,3.67
2019-06-10T15:00:03.040Z,5.05
2019-06-10T15:02:48.789Z,4.53
2019-06-10T15:05:35.277Z,4.10
2019-06-10T15:08:13.459Z,4.92
2019-06-10T15:10:45.800Z,5.33
2019-06-10T15:13:20.180Z,3.90
2019-06-10T15:15:53.844Z,5.00
2019-06-10T15:18:27.479Z,5.20
2019-06-10T15:21:02.894Z,3.62
2019-06-10T15:23:37.061Z,5.10
2019-06-10T15:26:14.397Z,4.92
2019-06-10T15:28:46.576Z,4.58
2019-06-10T15:31:22.457Z,6.30
2019-06-10T15:33:55.757Z,4.75
2019-06-10T15:36:29.855Z,3.83
2019-06-10T15:39:04.984Z,5.40
2019-06-10T15:41:38.798Z,5.95
2019-06-10T15:44:18.211Z,4.50
2019-06-10T15:46:47.974Z,5.15
2019-06-10T15:49:26.075Z,2.72
2019-06-10T15:51:57.126Z,2.40
2019-06-10T15:54:33.390Z,4.25
2019-06-10T15:57:21.608Z,3.70
2019-06-10T15:59:44.428Z,3.90
2019-06-10T16:02:27.797Z,3.98
2019-06-10T16:05:12.641Z,4.30
2019-06-10T16:07:44.987Z,4.15
2019-06-10T16:10:21.305Z,4.12
2019-06-10T16:13:05.656Z,3.60
2019-06-10T16:15:53.209Z,3.05
2019-06-10T16:18:38.487Z,3.70
2019-06-10T16:21:24.240Z,4.80
2019-06-10T16:24:07.799Z,3.35
2019-06-10T16:26:41.615Z,3.47
2019-06-10T16:29:27.639Z,2.58
2019-06-10T16:32:09.760Z,4.15
2019-06-10T16:34:43.095Z,5.42
2019-06-10T16:37:17.113Z,4.10
2019-06-10T16:39:57.841Z,4.40
2019-06-10T16:42:32.198Z,3.42
2019-06-10T16:45:07.601Z,4.20
2019-06-10T16:47:43.056Z,4.90
2019-06-10T16:50:19.463Z,3.55
2019-06-10T16:52:53.721Z,5.47
2019-06-10T16:55:27.734Z,4.60
2019-06-10T16:58:02.799Z,4.58
2019-06-10T17:00:36.944Z,6.25
2019-06-10T17:03:12.662Z,4.58
2019-06-10T17:05:46.175Z,5.10
2019-06-10T17:08:20.027Z,3.65
2019-06-10T17:10:54.495Z,3.75
2019-06-10T17:13:30.230Z,5.22
2019-06-10T17:16:04.576Z,5.37
2019-06-10T17:18:41.682Z,4.67
2019-06-10T17:21:15.767Z,4.42
2019-06-10T17:23:52.403Z,7.75
2019-06-10T17:26:30.639Z,7.45
2019-06-10T17:29:02.866Z,7.95
2019-06-10T17:31:35.311Z,9.15
2019-06-10T17:34:07.343Z,5.90
2019-06-10T17:36:39.148Z,5.42
2019-06-10T17:39:12.500Z,5.05
2019-06-10T17:41:44.685Z,4.62
2019-06-10T17:44:16.477Z,7.50
2019-06-10T17:46:48.595Z,6.25
2019-06-10T17:49:23.446Z,5.60
2019-06-10T17:51:53.965Z,5.62
2019-06-10T17:54:26.774Z,7.03
2019-06-10T17:59:29.306Z,6.30
2019-06-10T18:02:03.029Z,6.67
2019-06-10T18:04:36.168Z,6.10
2019-06-10T18:07:07.875Z,7.35
2019-06-10T18:09:39.759Z,6.12
2019-06-10T18:12:12.988Z,6.55
2019-06-10T18:14:44.903Z,4.90
2019-06-10T18:17:16.908Z,6.08
2019-06-10T18:19:48.778Z,7.58
2019-06-10T18:22:22.748Z,7.00
2019-06-10T18:24:54.173Z,5.53
2019-06-10T18:27:26.961Z,5.62
2019-06-10T18:30:02.293Z,5.40
2019-06-10T18:32:37.039Z,5.72
2019-06-10T18:35:07.625Z,8.65
2019-06-10T18:37:39.642Z,10.08
2019-06-10T18:40:14.483Z,7.17
2019-06-10T18:42:46.700Z,6.47
2019-06-10T18:45:19.601Z,6.08
2019-06-10T18:47:52.961Z,5.85
2019-06-10T18:50:26.166Z,9.63
2019-06-10T18:55:34.170Z,8.58
2019-06-10T18:58:04.781Z,6.47
2019-06-10T19:00:55.847Z,6.77
2019-06-10T19:03:16.399Z,7.22
2019-06-10T19:05:43.798Z,9.83
2019-06-10T19:08:15.643Z,6.95
2019-06-10T19:10:47.670Z,6.87
2019-06-10T19:13:19.427Z,6.75
2019-06-10T19:15:53.172Z,7.67
2019-06-10T19:18:25.347Z,5.72
2019-06-10T19:20:57.598Z,7.47
2019-06-10T19:23:30.240Z,5.60
2019-06-10T19:26:02.952Z,5.30
2019-06-10T19:28:37.537Z,8.53
2019-06-10T19:31:09.590Z,7.42
2019-06-10T19:33:44.727Z,8.58
2019-06-10T19:36:14.930Z,8.80
2019-06-10T19:38:46.764Z,6.55
2019-06-10T19:41:18.480Z,6.20
2019-06-10T19:43:49.908Z,8.10
2019-06-10T19:46:23.424Z,5.75
2019-06-10T19:49:02.730Z,6.97
2019-06-10T19:51:29.445Z,7.05
2019-06-10T19:54:03.483Z,7.25
2019-06-10T19:56:35.342Z,6.33
2019-06-10T19:59:06.986Z,5.50
2019-06-10T20:01:40.470Z,5.25
2019-06-10T20:04:14.721Z,10.63
2019-06-10T20:06:50.353Z,7.22
2019-06-10T20:09:19.536Z,6.20
2019-06-10T20:11:51.391Z,6.37
2019-06-10T20:14:23.188Z,6.55
2019-06-10T20:16:54.832Z,8.20
2019-06-10T20:19:26.542Z,5.78
2019-06-10T20:21:58.459Z,7.00
2019-06-10T20:24:30.349Z,4.58
2019-06-10T20:27:03.162Z,3.85
2019-06-10T20:29:35.747Z,4.30
2019-06-10T20:32:07.669Z,4.00
2019-06-10T20:34:39.383Z,4.42
2019-06-10T20:37:13.193Z,3.62
2019-06-10T20:39:46.514Z,3.08
2019-06-10T20:42:18.337Z,3.27
2019-06-10T20:44:50.943Z,2.72
2019-06-10T20:50:59.480Z,6.75
2019-06-10T20:53:56.643Z,6.70
2019-06-10T20:56:30.230Z,8.15
2019-06-10T20:59:02.782Z,9.93
2019-06-10T21:01:34.861Z,7.83
2019-06-10T21:04:06.444Z,6.95
2019-06-10T21:06:39.721Z,7.60
2019-06-10T21:09:13.379Z,6.70
2019-06-10T21:11:47.017Z,5.30
2019-06-10T21:14:18.983Z,7.28
2019-06-10T21:16:53.281Z,7.13
2019-06-10T21:19:24.139Z,8.05
2019-06-10T21:21:55.932Z,6.05
2019-06-10T21:24:27.466Z,5.90
2019-06-10T21:26:59.383Z,8.90
2019-06-10T21:29:32.282Z,6.90
2019-06-10T21:32:04.721Z,7.08
2019-06-10T21:34:36.390Z,6.33
2019-06-10T21:37:07.973Z,7.53
2019-06-10T21:39:39.656Z,9.80
2019-06-10T21:42:12.462Z,7.85
2019-06-10T21:44:43.984Z,13.58
2019-06-10T21:47:15.682Z,7.72
2019-06-10T21:49:48.403Z,7.05
2019-06-10T21:52:20.233Z,7.22
2019-06-10T21:54:52.790Z,7.00
2019-06-10T21:57:24.343Z,7.60
2019-06-10T21:59:56.308Z,6.67
2019-06-10T22:02:27.897Z,7.70
2019-06-10T22:04:59.807Z,6.00
2019-06-10T22:07:32.889Z,6.05
2019-06-10T22:10:05.654Z,5.97
2019-06-10T22:12:37.346Z,6.22
2019-06-10T22:15:09.457Z,7.60
2019-06-10T22:17:42.507Z,6.55
2019-06-10T22:20:14.999Z,6.22
2019-06-10T22:22:46.701Z,6.67
2019-06-10T22:25:18.660Z,8.20
2019-06-10T22:27:50.340Z,7.45
2019-06-10T22:30:23.344Z,6.58
2019-06-10T22:32:57.823Z,7.30
2019-06-10T22:35:28.757Z,9.53
2019-06-10T22:38:02.545Z,7.58
2019-06-10T22:40:34.403Z,7.60
2019-06-10T22:43:07.709Z,8.08
2019-06-10T22:45:39.534Z,8.05
2019-06-10T22:48:12.143Z,9.75
2019-06-10T22:50:43.920Z,9.40
2019-06-10T22:53:15.624Z,9.28
2019-06-10T22:55:48.385Z,8.25
2019-06-10T22:58:23.629Z,9.75
2019-06-10T23:00:56.227Z,8.65
2019-06-10T23:03:27.304Z,9.43
2019-06-10T23:05:59.162Z,10.45
2019-06-10T23:08:33.259Z,8.60
2019-06-10T23:11:04.530Z,7.97
2019-06-10T23:13:36.362Z,8.38
2019-06-10T23:16:07.936Z,7.22
2019-06-10T23:18:39.447Z,6.70
2019-06-10T23:21:13.281Z,6.58
2019-06-10T23:23:44.603Z,6.50
2019-06-10T23:26:16.630Z,6.70
2019-06-10T23:28:48.359Z,6.33
2019-06-10T23:31:20.066Z,6.62
2019-06-10T23:33:55.969Z,7.53
2019-06-10T23:36:26.230Z,5.85
2019-06-10T23:38:58.924Z,7.27
2019-06-10T23:41:32.882Z,6.33
2019-06-10T23:44:04.504Z,9.60
2019-06-10T23:46:36.177Z,9.38
2019-06-10T23:49:07.793Z,8.20
2019-06-10T23:51:39.452Z,8.93
2019-06-10T23:54:12.695Z,7.53
2019-06-10T23:56:44.622Z,7.05
2019-06-10T23:59:16.634Z,6.92
